Time;durP1;ratioP1;P1;durP2;ratioP2;P2;SDS_P1;SDS_P2;PMS_P1;PMS_P2;Temp;Humidity;BMP_temperature;BMP_pressure;BME280_temperature;BME280_humidity;BME280_pressure;Samples;Min_cycle;Max_cycle;Signal;HPM_P1;HPM_P2
2021/07/21 00:01:40;;;;;;;15.52;6.53;;;;;;;;;;5017269;28;20878;-88
2021/07/21 00:04:06;;;;;;;16.20;6.60;;;;;;;;;;5030648;28;20022;-87
2021/07/21 00:06:32;;;;;;;16.77;6.22;;;;;;;;;;5017017;28;20789;-88
2021/07/21 00:08:58;;;;;;;12.15;6.32;;;;;;;;;;5034654;28;20029;-88
2021/07/21 00:14:21;;;;;;;15.90;7.32;;;;;;;;;;5026654;28;20034;-88
2021/07/21 00:17:04;;;;;;;17.60;6.82;;;;;;;;;;5022666;28;20049;-87
2021/07/21 00:22:15;;;;;;;22.48;7.63;;;;;;;;;;5030146;28;20087;-88
2021/07/21 00:24:42;;;;;;;13.30;6.55;;;;;;;;;;5020854;28;20021;-88
2021/07/21 00:27:08;;;;;;;17.60;7.65;;;20.00;61.70;;;;;;5027950;28;20028;-86
2021/07/21 00:29:34;;;;;;;16.80;6.32;;;;;;;;;;5028746;28;20029;-87
2021/07/21 00:32:00;;;;;;;16.85;7.45;;;;;;;;;;5027045;28;20509;-88
2021/07/21 00:34:26;;;;;;;19.48;7.50;;;;;;;;;;5032915;28;20030;-87
2021/07/21 00:36:52;;;;;;;19.65;8.15;;;;;;;;;;5016151;28;20022;-87
2021/07/21 00:39:18;;;;;;;16.77;6.95;;;;;;;;;;5018009;28;20038;-87
2021/07/21 00:41:46;;;;;;;21.23;6.43;;;;;;;;;;5028599;28;20048;-87
2021/07/21 00:44:12;;;;;;;15.40;6.60;;;;;;;;;;5025857;28;20075;-87
2021/07/21 00:46:38;;;;;;;11.07;6.15;;;;;;;;;;5014509;28;20641;-87
2021/07/21 00:49:06;;;;;;;27.30;7.30;;;;;;;;;;5017093;28;20035;-87
2021/07/21 00:51:32;;;;;;;12.95;5.90;;;;;;;;;;5029056;28;20116;-87
2021/07/21 00:53:58;;;;;;;14.43;7.25;;;;;;;;;;5013624;28;20058;-88
2021/07/21 00:56:24;;;;;;;13.75;5.68;;;;;;;;;;5027804;28;20053;-87
2021/07/21 00:58:50;;;;;;;16.88;6.03;;;;;;;;;;5025948;28;20129;-87
2021/07/21 01:01:17;;;;;;;14.65;5.65;;;;;;;;;;5027470;28;20507;-88
2021/07/21 01:03:43;;;;;;;8.98;4.32;;;;;;;;;;5013886;28;20026;-87
2021/07/21 01:06:09;;;;;;;20.75;5.25;;;19.60;59.70;;;;;;5031420;28;20025;-88
2021/07/21 01:08:35;;;;;;;10.52;4.47;;;;;;;;;;5016493;28;20038;-87
2021/07/21 01:11:01;;;;;;;13.35;5.55;;;;;;;;;;5020988;28;20029;-87
2021/07/21 01:13:31;;;;;;;10.85;5.40;;;;;;;;;;5018945;28;20406;-87
2021/07/21 01:16:05;;;;;;;10.45;5.32;;;19.50;61.20;;;;;;5030106;28;20407;-88
2021/07/21 01:19:03;;;;;;;9.98;4.75;;;19.60;59.20;;;;;;5019017;28;20041;-87
2021/07/21 01:21:29;;;;;;;10.55;4.70;;;;;;;;;;5030295;28;20087;-87
2021/07/21 01:24:07;;;;;;;11.45;5.18;;;19.60;58.70;;;;;;5012726;28;20026;-88
2021/07/21 01:26:42;;;;;;;14.57;5.40;;;19.40;59.80;;;;;;5027687;28;20041;-87
2021/07/21 01:29:09;;;;;;;13.20;5.10;;;19.40;60.40;;;;;;5031105;28;20055;-88
2021/07/21 01:31:38;;;;;;;13.07;5.78;;;19.30;60.50;;;;;;5024920;28;20041;-87
2021/07/21 01:34:07;;;;;;;12.02;5.25;;;;;;;;;;5027870;28;20030;-87
2021/07/21 01:36:36;;;;;;;15.15;5.95;;;;;;;;;;5014617;28;20088;-87
2021/07/21 01:39:09;;;;;;;12.13;5.00;;;19.50;59.90;;;;;;5032705;28;20151;-88
2021/07/21 01:41:38;;;;;;;8.60;4.38;;;19.40;58.60;;;;;;5014424;28;20109;-88
2021/07/21 01:44:11;;;;;;;10.63;4.15;;;19.60;57.40;;;;;;5025060;28;20048;-87
2021/07/21 01:46:40;;;;;;;9.80;4.45;;;19.60;57.70;;;;;;5030080;28;20029;-87
2021/07/21 01:49:08;;;;;;;14.18;4.93;;;19.50;58.50;;;;;;5029376;28;20030;-87
2021/07/21 01:51:35;;;;;;;12.27;6.32;;;;;;;;;;5029148;28;20029;-87
2021/07/21 01:54:02;;;;;;;12.25;5.25;;;19.30;59.50;;;;;;5012315;28;20431;-86
2021/07/21 01:56:29;;;;;;;15.63;6.10;;;;;;;;;;5014140;28;20050;-87
2021/07/21 01:58:55;;;;;;;21.73;6.03;;;;;;;;;;5012538;28;20042;-87
2021/07/21 02:01:26;;;;;;;11.67;5.47;;;19.30;59.70;;;;;;5015317;28;20025;-87
2021/07/21 02:03:56;;;;;;;13.48;5.35;;;19.30;60.50;;;;;;5013934;28;20377;-87
2021/07/21 02:06:22;;;;;;;14.45;5.25;;;19.20;60.90;;;;;;5028015;28;20021;-87
2021/07/21 02:08:48;;;;;;;10.52;4.65;;;;;;;;;;5018788;28;20033;-87
2021/07/21 02:11:15;;;;;;;12.18;5.25;;;;;;;;;;5020490;28;20083;-87
2021/07/21 02:13:41;;;;;;;12.27;5.35;;;;;;;;;;5029827;28;20043;-87
2021/07/21 02:16:07;;;;;;;12.23;6.03;;;;;;;;;;5025426;28;20411;-87
2021/07/21 02:18:33;;;;;;;10.02;4.50;;;;;;;;;;5011274;28;20038;-87
2021/07/21 02:21:05;;;;;;;19.50;7.10;;;18.80;62.30;;;;;;5024349;28;20552;-86
2021/07/21 02:23:33;;;;;;;13.82;5.00;;;;;;;;;;5022698;28;20037;-88
2021/07/21 02:26:00;;;;;;;15.75;6.65;;;;;;;;;;5015295;28;20044;-87
2021/07/21 02:28:27;;;;;;;15.25;5.45;;;;;;;;;;5022285;28;20030;-88
2021/07/21 02:30:54;;;;;;;11.98;5.65;;;18.70;62.00;;;;;;5028403;28;20056;-87
2021/07/21 02:33:20;;;;;;;13.13;4.65;;;;;;;;;;5011675;28;20071;-87
2021/07/21 02:35:46;;;;;;;13.57;5.18;;;;;;;;;;5028667;28;20037;-86
2021/07/21 02:38:13;;;;;;;17.90;6.05;;;;;;;;;;5025117;28;20034;-87
2021/07/21 02:40:40;;;;;;;16.23;5.20;;;18.60;62.20;;;;;;5013571;28;20038;-87
2021/07/21 02:43:07;;;;;;;18.80;5.55;;;;;;;;;;5030808;28;20052;-87
2021/07/21 02:45:35;;;;;;;11.73;5.68;;;;;;;;;;5029535;28;20017;-87
2021/07/21 02:48:01;;;;;;;13.02;5.90;;;;;;;;;;5018036;28;20042;-88
2021/07/21 02:50:27;;;;;;;11.48;4.85;;;;;;;;;;5020670;28;20033;-87
2021/07/21 02:53:09;;;;;;;13.02;5.00;;;18.80;77.90;;;;;;5018091;28;20391;-87
2021/07/21 02:55:41;;;;;;;11.93;5.15;;;;;;;;;;5018801;28;20049;-88
2021/07/21 02:58:31;;;;;;;9.55;4.25;;;19.20;58.80;;;;;;5028786;28;20033;-87
2021/07/21 03:01:00;;;;;;;12.73;4.18;;;19.10;58.90;;;;;;5027042;28;20041;-87
2021/07/21 03:03:26;;;;;;;8.55;4.18;;;;;;;;;;5014271;28;20033;-86
2021/07/21 03:05:56;;;;;;;10.40;5.00;;;18.70;60.00;;;;;;5025293;28;20052;-87
2021/07/21 03:08:25;;;;;;;10.40;5.28;;;18.70;60.70;;;;;;5024326;28;20029;-86
2021/07/21 03:10:52;;;;;;;11.40;4.82;;;;;;;;;;5025316;28;20052;-87
2021/07/21 03:13:22;;;;;;;13.25;5.43;;;18.70;61.50;;;;;;5016523;28;20029;-87
2021/07/21 03:15:48;;;;;;;11.75;4.47;;;;;;;;;;5012008;28;20033;-87
2021/07/21 03:18:21;;;;;;;11.00;5.63;;;18.80;60.40;;;;;;5026226;28;20033;-86
2021/07/21 03:20:48;;;;;;;10.45;5.15;;;;;;;;;;5017319;28;20041;-86
2021/07/21 03:23:14;;;;;;;11.52;5.47;;;;;;;;;;5020098;28;20029;-87
2021/07/21 03:25:42;;;;;;;15.18;4.63;;;;;;;;;;5024533;28;20030;-87
2021/07/21 03:28:08;;;;;;;15.93;6.40;;;;;;;;;;5025110;28;20025;-87
2021/07/21 03:30:35;;;;;;;16.27;6.65;;;;;;;;;;5011175;28;20117;-87
2021/07/21 03:33:01;;;;;;;13.13;4.53;;;;;;;;;;5023587;28;20553;-86
2021/07/21 03:35:30;;;;;;;15.68;5.53;;;18.50;61.00;;;;;;5018004;28;20018;-86
2021/07/21 03:37:57;;;;;;;12.88;4.35;;;;;;;;;;5018860;28;20041;-86
2021/07/21 03:40:25;;;;;;;10.73;4.90;;;18.50;60.90;;;;;;5022027;28;20026;-87
2021/07/21 03:42:52;;;;;;;13.77;5.65;;;;;;;;;;5011021;28;20459;-86
2021/07/21 03:45:18;;;;;;;10.93;4.78;;;;;;;;;;5040731;28;20617;-86
2021/07/21 03:47:46;;;;;;;10.07;4.50;;;18.30;61.30;;;;;;5028383;28;20065;-88
2021/07/21 03:50:13;;;;;;;12.38;5.18;;;;;;;;;;5037067;28;20030;-86
2021/07/21 03:52:44;;;;;;;9.93;4.30;;;18.30;61.60;;;;;;5009779;28;20030;-86
2021/07/21 03:55:11;;;;;;;12.52;4.07;;;;;;;;;;5012255;28;20029;-85
2021/07/21 03:57:37;;;;;;;11.07;4.32;;;;;;;;;;5026237;28;20037;-85
2021/07/21 04:00:10;;;;;;;9.68;4.22;;;18.30;62.00;;;;;;5009413;28;20038;-87
2021/07/21 04:02:36;;;;;;;10.07;3.92;;;;;;;;;;5042324;28;20034;-86
2021/07/21 04:05:04;;;;;;;9.77;4.47;;;18.20;62.00;;;;;;5010565;28;20026;-86
2021/07/21 04:07:29;;;;;;;;;;;18.10;62.60;;;;;;5011302;28;20037;-86
2021/07/21 04:09:56;;;;;;;13.05;6.30;;;;;;;;;;5027485;28;19909;-87
2021/07/21 04:12:22;;;;;;;12.43;5.82;;;;;;;;;;5025571;28;20060;-87
2021/07/21 04:14:51;;;;;;;11.70;4.35;;;18.00;62.90;;;;;;5023393;28;20136;-87
2021/07/21 04:17:17;;;;;;;12.80;5.82;;;;;;;;;;5020714;28;20079;-86
2021/07/21 04:19:44;;;;;;;13.05;4.60;;;;;;;;;;5023039;28;20087;-86
2021/07/21 04:22:10;;;;;;;13.55;6.45;;;;;;;;;;5025382;28;20036;-87
2021/07/21 04:24:37;;;;;;;13.77;5.97;;;;;;;;;;5026014;28;20069;-86
2021/07/21 04:27:04;;;;;;;14.18;5.53;;;17.30;61.50;;;;;;5023935;28;20029;-87
2021/07/21 04:29:34;;;;;;;12.48;5.35;;;;;;;;;;5025713;28;20029;-87
2021/07/21 04:32:01;;;;;;;13.05;5.07;;;;;;;;;;5025334;28;20482;-88
2021/07/21 04:34:27;;;;;;;9.48;5.03;;;;;;;;;;5024113;28;20022;-87
2021/07/21 04:36:55;;;;;;;7.50;3.97;;;18.10;62.50;;;;;;5030165;28;20531;-87
2021/07/21 04:39:21;;;;;;;17.85;5.20;;;;;;;;;;5029299;28;20042;-86
2021/07/21 04:41:51;;;;;;;9.55;4.43;;;18.10;62.40;;;;;;5025022;28;20053;-85
2021/07/21 04:44:17;;;;;;;15.95;4.60;;;;;;;;;;5030659;28;20030;-87
2021/07/21 04:46:43;;;;;;;10.90;5.00;;;;;;;;;;5025880;28;20038;-84
2021/07/21 04:49:11;;;;;;;11.95;4.68;;;18.10;63.00;;;;;;5026929;28;20034;-86
2021/07/21 04:51:37;;;;;;;9.93;4.63;;;;;;;;;;5029169;28;20083;-86
2021/07/21 04:54:05;;;;;;;14.50;4.78;;;18.20;63.20;;;;;;5027987;28;20578;-86
2021/07/21 04:56:31;;;;;;;12.60;5.07;;;;;;;;;;5021963;28;20111;-87
2021/07/21 04:58:57;;;;;;;9.30;4.40;;;;;;;;;;5020951;28;20092;-87
2021/07/21 05:01:23;;;;;;;13.05;5.22;;;;;;;;;;5017901;28;20021;-86
2021/07/21 05:03:50;;;;;;;12.25;5.38;;;;;;;;;;5014543;28;20556;-85
2021/07/21 05:06:16;;;;;;;16.40;6.20;;;;;;;;;;5032842;28;20060;-86
2021/07/21 05:08:42;;;;;;;9.32;4.25;;;;;;;;;;5014252;28;20529;-86
2021/07/21 05:11:08;;;;;;;15.55;4.70;;;;;;;;;;5019992;28;20052;-86
2021/07/21 05:13:38;;;;;;;12.00;4.55;;;;;;;;;;5027274;28;20033;-86
2021/07/21 05:16:04;;;;;;;16.27;5.05;;;;;;;;;;5029943;28;20053;-85
2021/07/21 05:18:30;;;;;;;11.23;4.63;;;;;;;;;;5011179;28;20045;-86
2021/07/21 05:20:56;;;;;;;13.20;5.28;;;;;;;;;;5019264;28;20072;-86
2021/07/21 05:23:22;;;;;;;9.65;5.07;;;;;;;;;;5016824;28;20442;-87
2021/07/21 05:25:48;;;;;;;12.30;5.43;;;;;;;;;;5015305;28;20124;-86
2021/07/21 05:28:13;;;;;;;13.13;6.57;;;19.10;79.50;;;;;;5030214;28;20120;-87
2021/07/21 05:30:39;;;;;;;15.70;6.90;;;;;;;;;;5015545;28;20026;-85
2021/07/21 05:33:05;;;;;;;8.38;4.38;;;;;;;;;;5038432;28;20037;-85
2021/07/21 05:35:31;;;;;;;10.50;5.38;;;;;;;;;;5027705;28;20033;-85
2021/07/21 05:37:58;;;;;;;9.50;4.63;;;;;;;;;;5039340;28;20036;-84
2021/07/21 05:40:24;;;;;;;13.90;5.68;;;;;;;;;;5016709;28;20025;-86
2021/07/21 05:42:50;;;;;;;15.07;6.32;;;;;;;;;;5011952;28;20022;-86
2021/07/21 05:45:16;;;;;;;14.27;4.68;;;;;;;;;;5025909;28;20026;-86
2021/07/21 05:47:42;;;;;;;8.45;4.57;;;;;;;;;;5042959;28;20030;-86
2021/07/21 05:50:09;;;;;;;13.75;5.60;;;;;;;;;;5017193;28;20033;-86
2021/07/21 05:52:34;;;;;;;13.80;5.47;;;;;;;;;;5015364;28;20026;-86
2021/07/21 05:55:00;;;;;;;16.98;5.45;;;;;;;;;;5027838;28;20068;-85
2021/07/21 05:57:27;;;;;;;12.05;4.88;;;;;;;;;;5022886;28;20148;-87
2021/07/21 05:59:53;;;;;;;12.32;5.38;;;;;;;;;;5023440;28;20506;-85
2021/07/21 06:02:20;;;;;;;9.60;4.45;;;;;;;;;;5010939;28;20045;-88
2021/07/21 06:04:46;;;;;;;8.63;4.40;;;;;;;;;;5013746;28;20221;-86
2021/07/21 06:07:12;;;;;;;12.80;6.35;;;;;;;;;;5013261;28;20041;-87
2021/07/21 06:09:38;;;;;;;20.73;6.60;;;;;;;;;;5010852;28;20487;-86
2021/07/21 06:12:05;;;;;;;11.60;5.20;;;;;;;;;;5030921;28;20104;-87
2021/07/21 06:14:32;;;;;;;13.38;6.47;;;;;;;;;;5016220;28;20042;-87
2021/07/21 06:16:59;;;;;;;12.70;4.43;;;;;;;;;;5014061;28;20026;-87
2021/07/21 06:19:25;;;;;;;12.85;5.63;;;;;;;;;;5010019;28;20044;-86
2021/07/21 06:21:51;;;;;;;15.55;5.93;;;;;;;;;;5010868;28;20026;-86
2021/07/21 06:24:17;;;;;;;16.63;6.00;;;;;;;;;;5019037;28;20038;-74
2021/07/21 06:26:44;;;;;;;11.15;5.55;;;21.50;56.00;;;;;;5016457;28;20026;-74
2021/07/21 06:29:10;;;;;;;15.38;5.30;;;;;;;;;;5020083;28;20107;-74
2021/07/21 06:31:36;;;;;;;15.00;5.00;;;;;;;;;;5014807;28;20076;-74
2021/07/21 06:34:02;;;;;;;13.68;5.63;;;;;;;;;;5013456;28;20034;-74
2021/07/21 06:36:28;;;;;;;14.77;5.60;;;;;;;;;;5012325;28;20022;-74
2021/07/21 06:38:54;;;;;;;35.08;6.63;;;;;;;;;;5028071;28;20045;-82
2021/07/21 06:41:20;;;;;;;15.88;5.72;;;;;;;;;;5020854;28;20026;-83
2021/07/21 06:43:49;;;;;;;12.75;5.75;;;;;;;;;;5011470;28;20038;-83
2021/07/21 06:46:15;;;;;;;12.82;5.45;;;;;;;;;;5014334;28;20068;-81
2021/07/21 06:48:41;;;;;;;12.40;5.40;;;;;;;;;;5010566;28;20430;-84
2021/07/21 06:51:07;;;;;;;16.33;5.53;;;;;;;;;;5025023;28;20124;-83
2021/07/21 06:53:33;;;;;;;15.23;5.03;;;;;;;;;;5022995;28;20028;-83
2021/07/21 06:55:59;;;;;;;11.68;5.15;;;;;;;;;;5019708;28;20088;-82
2021/07/21 06:58:25;;;;;;;14.80;5.68;;;;;;;;;;5023980;28;20095;-83
2021/07/21 07:00:51;;;;;;;15.00;5.82;;;;;;;;;;5025327;28;20426;-83
2021/07/21 07:03:17;;;;;;;10.10;4.50;;;;;;;;;;5021171;28;20025;-82
2021/07/21 07:05:43;;;;;;;11.45;6.47;;;;;;;;;;5017102;28;20057;-82
2021/07/21 07:08:09;;;;;;;13.07;6.45;;;;;;;;;;5019772;28;20041;-82
2021/07/21 07:10:35;;;;;;;13.27;6.63;;;;;;;;;;5026614;28;20037;-82
2021/07/21 07:13:02;;;;;;;13.30;6.68;;;;;;;;;;5012371;28;20541;-84
2021/07/21 07:15:28;;;;;;;11.15;5.22;;;;;;;;;;5011317;28;20026;-83
2021/07/21 07:17:54;;;;;;;14.05;5.95;;;;;;;;;;5016515;28;20438;-83
2021/07/21 07:20:20;;;;;;;15.77;6.53;;;;;;;;;;5015503;28;20037;-83
2021/07/21 07:22:46;;;;;;;19.33;6.72;;;;;;;;;;5012160;28;20058;-81
2021/07/21 07:25:12;;;;;;;15.90;6.95;;;;;;;;;;5023945;28;20029;-81
2021/07/21 07:27:38;;;;;;;19.73;7.25;;;;;;;;;;5013369;28;20048;-81
2021/07/21 07:30:05;;;;;;;15.27;6.40;;;;;;;;;;5015046;28;20027;-81
2021/07/21 07:32:31;;;;;;;17.63;8.32;;;;;;;;;;5017065;28;20034;-82
2021/07/21 07:34:57;;;;;;;14.32;6.63;;;;;;;;;;5011125;28;20321;-81
2021/07/21 07:37:23;;;;;;;11.93;6.70;;;;;;;;;;5015258;28;20029;-82
2021/07/21 07:39:49;;;;;;;15.93;8.10;;;;;;;;;;5009211;28;20141;-82
2021/07/21 07:42:15;;;;;;;12.35;6.93;;;;;;;;;;5025009;28;20021;-81
2021/07/21 07:44:41;;;;;;;13.80;6.40;;;;;;;;;;5022438;28;20044;-81
2021/07/21 07:47:07;;;;;;;14.43;6.18;;;;;;;;;;5037422;28;20030;-81
2021/07/21 07:49:34;;;;;;;18.77;6.27;;;;;;;;;;5026875;28;20113;-81
2021/07/21 07:52:00;;;;;;;11.95;5.88;;;;;;;;;;5010290;28;20391;-83
2021/07/21 07:54:26;;;;;;;16.20;7.30;;;;;;;;;;5010619;28;20034;-80
2021/07/21 07:56:52;;;;;;;13.77;5.90;;;;;;;;;;5018559;28;20387;-81
2021/07/21 07:59:18;;;;;;;16.93;6.90;;;;;;;;;;5013752;28;20883;-81
2021/07/21 08:01:47;;;;;;;15.38;6.32;;;;;;;;;;5025510;28;20029;-81
2021/07/21 08:04:13;;;;;;;18.33;6.63;;;;;;;;;;5014901;28;20022;-83
2021/07/21 08:06:39;;;;;;;16.75;6.90;;;;;;;;;;5028073;28;20025;-82
2021/07/21 08:09:15;;;;;;;16.20;6.87;;;34.10;32.20;;;;;;5024620;28;20391;-82
2021/07/21 08:11:45;;;;;;;22.80;7.20;;;34.80;32.00;;;;;;5020228;28;20451;-81
2021/07/21 08:14:11;;;;;;;12.43;6.53;;;;;;;;;;5018721;28;20038;-82
2021/07/21 08:16:37;;;;;;;14.15;7.10;;;;;;;;;;5014734;28;20026;-82
2021/07/21 08:19:03;;;;;;;17.13;6.67;;;35.90;30.10;;;;;;5015567;28;20033;-84
2021/07/21 08:21:29;;;;;;;20.60;6.53;;;;;;;;;;5017776;28;20268;-83
2021/07/21 08:23:55;;;;;;;14.37;6.73;;;;;;;;;;5014798;28;20037;-82
2021/07/21 08:26:21;;;;;;;16.42;7.18;;;;;;;;;;5020580;28;20033;-81
2021/07/21 08:28:47;;;;;;;17.13;7.20;;;;;;;;;;5027583;28;20572;-82
2021/07/21 08:31:13;;;;;;;12.38;6.88;;;;;;;;;;5015496;28;20022;-82
2021/07/21 08:33:41;;;;;;;17.27;7.13;;;;;;;;;;5023776;28;20418;-81
2021/07/21 08:36:07;;;;;;;15.90;6.68;;;;;;;;;;5020634;28;20681;-81
2021/07/21 08:38:33;;;;;;;15.68;6.53;;;;;;;;;;5022820;28;20502;-81
2021/07/21 08:41:00;;;;;;;18.47;7.47;;;38.80;27.70;;;;;;5021392;28;20060;-81
2021/07/21 08:43:27;;;;;;;15.40;6.47;;;38.70;27.30;;;;;;5018748;28;20880;-82
2021/07/21 08:45:53;;;;;;;15.73;6.72;;;;;;;;;;5013685;28;20025;-82
2021/07/21 08:48:19;;;;;;;12.93;5.75;;;;;;;;;;5016584;28;20068;-81
2021/07/21 08:50:46;;;;;;;20.02;6.93;;;40.50;26.40;;;;;;5018699;28;20061;-82
2021/07/21 08:53:14;;;;;;;13.75;6.47;;;40.90;26.40;;;;;;5029442;28;20116;-82
2021/07/21 08:55:40;;;;;;;20.70;7.47;;;;;;;;;;5018176;28;20506;-82
2021/07/21 08:58:06;;;;;;;16.38;7.20;;;;;;;;;;5011752;28;20128;-81
2021/07/21 09:00:33;;;;;;;17.17;6.38;;;;;;;;;;5011257;28;20038;-82
2021/07/21 09:03:01;;;;;;;16.23;7.55;;;41.00;26.60;;;;;;5022235;28;20013;-81
2021/07/21 09:05:27;;;;;;;14.50;6.43;;;;;;;;;;5041248;28;20057;-87
2021/07/21 09:07:53;;;;;;;16.42;6.93;;;;;;;;;;5053256;28;20021;-84
2021/07/21 09:10:20;;;;;;;18.13;8.32;;;43.20;25.30;;;;;;5057990;28;20055;-87
2021/07/21 09:12:49;;;;;;;13.70;6.40;;;43.90;24.60;;;;;;5071229;28;20778;-87
2021/07/21 09:15:18;;;;;;;13.27;5.97;;;44.70;24.20;;;;;;5066727;28;20040;-89
2021/07/21 09:17:57;;;;;;;13.50;6.78;;;45.40;24.10;;;;;;5069650;28;20162;-88
2021/07/21 09:20:23;;;;;;;10.45;6.05;;;;;;;;;;5051836;28;20020;-87
2021/07/21 09:22:53;;;;;;;14.95;6.43;;;46.60;23.40;;;;;;5063443;28;20025;-75
2021/07/21 09:25:23;;;;;;;10.45;5.72;;;46.70;23.50;;;;;;5065889;28;20021;-75
2021/07/21 09:28:01;;;;;;;12.68;6.18;;;47.50;23.80;;;;;;5056022;28;20670;-75
2021/07/21 09:30:29;;;;;;;14.65;6.25;;;47.90;22.30;;;;;;5066278;28;20063;-76
2021/07/21 09:33:12;;;;;;;14.63;5.95;;;47.70;22.70;;;;;;5053798;28;20078;-75
2021/07/21 09:35:41;;;;;;;13.07;6.82;;;47.30;23.00;;;;;;5056877;28;20029;-74
2021/07/21 09:38:13;;;;;;;16.90;6.00;;;47.20;23.70;;;;;;5052873;28;20052;-75
2021/07/21 09:40:42;;;;;;;12.27;5.90;;;47.40;23.80;;;;;;5045460;28;20052;-76
2021/07/21 09:43:22;;;;;;;15.68;6.72;;;;;;;;;;5014667;28;20137;-75
2021/07/21 09:45:49;;;;;;;13.93;7.07;;;46.90;23.10;;;;;;5046460;28;20036;-75
2021/07/21 09:48:18;;;;;;;11.82;6.32;;;;;;;;;;5040471;28;20028;-75
2021/07/21 09:50:46;;;;;;;11.57;5.88;;;46.50;23.20;;;;;;5043622;28;20109;-74
2021/07/21 09:53:13;;;;;;;11.18;5.70;;;46.50;28.60;;;;;;5044666;28;20025;-75
2021/07/21 09:55:44;;;;;;;11.70;5.85;;;46.00;23.60;;;;;;5033095;28;20599;-75
2021/07/21 09:58:12;;;;;;;17.23;6.82;;;;;;;;;;5034094;28;20037;-75
2021/07/21 10:00:42;;;;;;;13.23;5.93;;;;;;;;;;5034334;28;20615;-75
2021/07/21 10:03:11;;;;;;;19.25;6.82;;;;;;;;;;5049638;28;20074;-88
2021/07/21 10:06:05;;;;;;;13.13;6.20;;;46.80;35.60;;;;;;5038756;28;20602;-89
2021/07/21 10:08:31;;;;;;;11.05;5.32;;;;;;;;;;5032287;28;20064;-85
2021/07/21 10:10:58;;;;;;;14.75;6.15;;;48.40;23.10;;;;;;5036218;28;20033;-85
2021/07/21 10:13:24;;;;;;;11.93;6.22;;;;;;;;;;5037670;28;20505;-84
2021/07/21 10:15:54;;;;;;;11.63;5.50;;;;;;;;;;5046020;28;20028;-83
2021/07/21 10:18:22;;;;;;;9.80;5.63;;;49.70;22.40;;;;;;5047653;28;20160;-83
2021/07/21 10:20:49;;;;;;;10.77;5.20;;;;;;;;;;5043165;28;20028;-83
2021/07/21 10:23:16;;;;;;;13.80;5.57;;;;;;;;;;5041039;28;20028;-84
2021/07/21 10:25:42;;;;;;;12.38;5.60;;;;;;;;;;5045576;28;20033;-83
2021/07/21 10:28:08;;;;;;;13.23;5.68;;;51.50;21.70;;;;;;5036964;28;20520;-84
2021/07/21 10:30:36;;;;;;;13.68;6.85;;;51.50;21.50;;;;;;5031954;28;20034;-84
2021/07/21 10:33:02;;;;;;;10.70;5.20;;;;;;;;;;5031593;28;20667;-84
2021/07/21 10:35:29;;;;;;;11.80;6.57;;;50.40;21.20;;;;;;5046259;28;20025;-85
2021/07/21 10:37:55;;;;;;;13.40;5.78;;;;;;;;;;5036704;28;20659;-85
2021/07/21 10:40:23;;;;;;;12.05;5.63;;;;;;;;;;5038013;28;20061;-89
2021/07/21 10:42:53;;;;;;;11.15;5.22;;;51.30;21.80;;;;;;5028111;28;20045;-84
2021/07/21 10:45:22;;;;;;;10.30;6.07;;;52.00;21.50;;;;;;5042242;28;20025;-85
2021/07/21 10:47:50;;;;;;;18.98;5.78;;;51.90;20.60;;;;;;5036207;28;20077;-85
2021/07/21 10:59:11;;;;;;;11.55;5.35;;;;;;;;;;5041967;28;20071;-84
2021/07/21 11:01:42;;;;;;;11.88;5.47;;;52.10;20.60;;;;;;5036155;28;20049;-84
2021/07/21 11:04:09;;;;;;;12.85;5.57;;;;;;;;;;5031911;28;20063;-84
2021/07/21 11:06:45;;;;;;;20.65;6.25;;;51.50;20.80;;;;;;5036995;28;20037;-84
2021/07/21 11:09:34;;;;;;;13.23;5.82;;;;;;;;;;5037000;28;20064;-84
2021/07/21 11:12:00;;;;;;;11.65;6.07;;;;;;;;;;5038343;28;20561;-84
2021/07/21 11:14:29;;;;;;;12.77;6.30;;;51.00;21.40;;;;;;5041789;28;20029;-84
2021/07/21 11:17:09;;;;;;;12.70;5.07;;;48.20;21.30;;;;;;5042952;28;20476;-83
2021/07/21 11:19:35;;;;;;;13.18;5.35;;;;;;;;;;5031886;28;20044;-83
2021/07/21 11:22:23;;;;;;;13.60;5.70;;;40.50;24.90;;;;;;5043113;28;20056;-84
2021/07/21 11:25:17;;;;;;;14.98;6.55;;;38.40;26.50;;;;;;5042020;28;20063;-84
2021/07/21 11:27:53;;;;;;;17.55;6.15;;;36.80;27.60;;;;;;5042146;28;20481;-84
2021/07/21 11:30:41;;;;;;;16.73;6.55;;;35.50;29.40;;;;;;5047027;28;20029;-84
2021/07/21 11:33:49;;;;;;;19.48;5.55;;;34.80;30.80;;;;;;5045650;28;20036;-86
2021/07/21 11:36:43;;;;;;;14.48;6.10;;;34.00;32.10;;;;;;5042989;28;20057;-83
2021/07/21 11:39:56;;;;;;;11.10;5.75;;;33.50;32.30;;;;;;5031389;28;20076;-85
2021/07/21 11:42:33;;;;;;;13.25;6.22;;;;;;;;;;5044387;28;20025;-83
2021/07/21 11:45:05;;;;;;;11.68;5.97;;;;;;;;;;5043016;28;20060;-83
2021/07/21 11:47:36;;;;;;;15.13;6.00;;;32.70;33.30;;;;;;5044078;28;20021;-83
2021/07/21 11:50:24;;;;;;;13.13;6.22;;;32.50;35.70;;;;;;5041735;28;20125;-83
2021/07/21 11:52:54;;;;;;;14.10;6.03;;;32.40;34.60;;;;;;5035110;28;20029;-81
2021/07/21 11:55:24;;;;;;;16.70;5.78;;;32.20;36.80;;;;;;5038652;28;20048;-84
2021/07/21 11:57:50;;;;;;;16.77;6.45;;;;;;;;;;5029211;28;20116;-84
2021/07/21 12:00:18;;;;;;;11.27;5.22;;;31.70;41.70;;;;;;5046950;28;20116;-84
2021/07/21 12:02:44;;;;;;;12.80;6.53;;;;;;;;;;5036659;28;20537;-85
2021/07/21 12:05:10;;;;;;;13.90;6.07;;;;;;;;;;5034981;28;20029;-83
2021/07/21 12:07:38;;;;;;;18.63;6.60;;;31.40;36.50;;;;;;5035520;28;20036;-85
2021/07/21 12:10:10;;;;;;;13.43;5.32;;;31.30;36.00;;;;;;5030420;28;20283;-84
2021/07/21 12:12:37;;;;;;;12.27;5.20;;;;;;;;;;5046465;28;20025;-84
2021/07/21 12:15:03;;;;;;;13.57;5.45;;;;;;;;;;5030034;28;20037;-84
2021/07/21 12:17:29;;;;;;;11.17;4.00;;;;;;;;;;5030579;28;20441;-85
2021/07/21 12:19:56;;;;;;;14.27;6.22;;;;;;;;;;5035213;28;20033;-85
2021/07/21 12:22:23;;;;;;;11.63;5.70;;;31.30;38.30;;;;;;5032673;28;20067;-84
2021/07/21 12:24:54;;;;;;;9.75;5.45;;;31.20;35.90;;;;;;5044460;28;20033;-84
2021/07/21 12:27:30;;;;;;;15.15;5.38;;;31.30;40.80;;;;;;5030832;28;20492;-83
2021/07/21 12:30:05;;;;;;;11.30;5.13;;;31.30;37.30;;;;;;5035216;28;20038;-84
2021/07/21 12:32:31;;;;;;;10.63;5.22;;;;;;;;;;5049426;28;20034;-85
2021/07/21 12:34:58;;;;;;;11.90;5.95;;;;;;;;;;5034335;28;20040;-84
2021/07/21 12:37:36;;;;;;;11.80;5.82;;;30.70;54.20;;;;;;5032872;28;20026;-85
2021/07/21 12:40:06;;;;;;;13.43;6.18;;;30.90;38.10;;;;;;5031020;28;20029;-84
2021/07/21 12:42:33;;;;;;;14.75;5.72;;;;;;;;;;5030292;28;20030;-84
2021/07/21 12:45:10;;;;;;;12.30;5.30;;;30.80;37.50;;;;;;5047082;28;20029;-83
2021/07/21 12:47:38;;;;;;;14.13;5.45;;;;;;;;;;5045596;28;20079;-85
2021/07/21 12:50:05;;;;;;;;;;;30.40;37.90;;;;;;5042780;28;20083;-85
2021/07/21 12:52:35;;;;;;;16.60;5.38;;;30.30;37.60;;;;;;5033313;28;19917;-84
2021/07/21 12:55:04;;;;;;;13.23;5.75;;;30.10;39.30;;;;;;5049078;28;20562;-84
2021/07/21 12:57:32;;;;;;;13.38;5.03;;;;;;;;;;5045967;28;20505;-85
2021/07/21 13:00:05;;;;;;;13.45;6.88;;;;;;;;;;5038753;28;20067;-86
2021/07/21 13:02:32;;;;;;;12.18;5.82;;;;;;;;;;5044069;28;20120;-84
2021/07/21 13:04:58;;;;;;;11.90;5.25;;;;;;;;;;5045770;28;20080;-84
2021/07/21 13:07:24;;;;;;;13.18;5.50;;;;;;;;;;5020857;28;20551;-85
2021/07/21 13:09:54;;;;;;;10.00;4.68;;;30.30;41.20;;;;;;5037420;28;20414;-86
2021/07/21 13:12:20;;;;;;;12.95;5.22;;;;;;;;;;5041619;28;20411;-86
2021/07/21 13:14:58;;;;;;;14.63;6.10;;;30.20;39.60;;;;;;5036042;28;20065;-84
2021/07/21 13:17:25;;;;;;;12.25;6.35;;;30.10;39.00;;;;;;5039590;28;20334;-83
2021/07/21 13:20:08;;;;;;;12.13;4.88;;;30.10;40.20;;;;;;5036489;28;20056;-83
2021/07/21 13:22:34;;;;;;;10.52;5.30;;;;;;;;;;5037527;28;20036;-83
2021/07/21 13:25:11;;;;;;;17.33;6.13;;;;;;;;;;5040424;28;20086;-82
2021/07/21 13:27:37;;;;;;;13.35;5.05;;;;;;;;;;5030932;28;20426;-85
2021/07/21 13:30:20;;;;;;;13.07;5.57;;;29.80;41.20;;;;;;5037382;28;20029;-83
2021/07/21 13:32:46;;;;;;;16.65;5.72;;;;;;;;;;5039441;28;20029;-84
2021/07/21 13:35:13;;;;;;;10.70;5.15;;;;;;;;;;5038293;28;20060;-83
2021/07/21 13:37:39;;;;;;;11.20;5.97;;;;;;;;;;5029232;28;20033;-84
2021/07/21 13:40:06;;;;;;;13.90;6.15;;;;;;;;;;5040289;28;20043;-84
2021/07/21 13:42:32;;;;;;;10.93;5.88;;;;;;;;;;5032778;28;20029;-84
2021/07/21 13:45:05;;;;;;;10.02;5.00;;;29.60;42.20;;;;;;5044816;28;20104;-84
2021/07/21 13:47:31;;;;;;;13.07;5.20;;;;;;;;;;5037792;28;20074;-83
2021/07/21 13:50:02;;;;;;;16.07;6.37;;;;;;;;;;5035637;28;20104;-84
2021/07/21 13:52:28;;;;;;;16.35;6.28;;;;;;;;;;5028396;28;20029;-83
2021/07/21 13:54:54;;;;;;;12.65;5.97;;;;;;;;;;5038948;28;20037;-84
2021/07/21 13:57:20;;;;;;;12.05;5.57;;;;;;;;;;5034679;28;20115;-85
2021/07/21 13:59:47;;;;;;;14.45;6.60;;;29.60;42.60;;;;;;5041656;28;20083;-84
2021/07/21 14:02:15;;;;;;;12.93;5.85;;;29.50;42.50;;;;;;5034248;28;20087;-85
2021/07/21 14:04:41;;;;;;;12.15;5.68;;;;;;;;;;5042530;28;20469;-84
2021/07/21 14:07:11;;;;;;;16.27;7.38;;;29.50;47.30;;;;;;5027472;28;20067;-85
2021/07/21 14:09:37;;;;;;;8.68;4.65;;;;;;;;;;5029469;28;20045;-85
2021/07/21 14:12:03;;;;;;;14.05;5.90;;;;;;;;;;5034934;28;20036;-83